createdAt,value
2018-12-18T00:00:18.729Z,21.73
2018-12-18T00:02:22.556Z,23.20
2018-12-18T00:04:27.029Z,28.40
2018-12-18T00:06:31.795Z,28.40
2018-12-18T00:08:35.481Z,29.40
2018-12-18T00:10:49.172Z,26.43
2018-12-18T00:12:53.382Z,26.90
2018-12-18T00:14:57.192Z,32.50
2018-12-18T00:17:05.723Z,26.50
2018-12-18T00:19:11.980Z,27.10
2018-12-18T00:21:21.591Z,31.83
2018-12-18T00:23:25.340Z,27.23
2018-12-18T00:25:34.025Z,23.93
2018-12-18T00:27:43.064Z,22.20
2018-12-18T00:29:58.179Z,29.43
2018-12-18T00:32:04.800Z,28.37
2018-12-18T00:34:13.366Z,32.90
2018-12-18T00:36:17.291Z,31.60
2018-12-18T00:38:21.088Z,33.83
2018-12-18T00:40:30.044Z,32.53
2018-12-18T00:42:39.408Z,33.17
2018-12-18T00:44:42.898Z,32.67
2018-12-18T00:46:46.701Z,31.97
2018-12-18T00:48:51.793Z,32.37
2018-12-18T00:51:00.479Z,33.70
2018-12-18T00:53:09.541Z,33.40
2018-12-18T00:55:15.296Z,33.30
2018-12-18T00:57:21.291Z,31.93
2018-12-18T00:59:25.185Z,34.83
2018-12-18T01:01:29.696Z,35.67
2018-12-18T01:03:33.852Z,35.23
2018-12-18T01:05:37.942Z,34.33
2018-12-18T01:07:53.132Z,36.27
2018-12-18T01:09:53.109Z,35.30
2018-12-18T01:12:01.904Z,35.93
2018-12-18T01:14:05.764Z,34.90
2018-12-18T01:16:14.695Z,36.90
2018-12-18T01:18:24.016Z,27.07
2018-12-18T01:20:28.098Z,36.33
2018-12-18T01:22:37.433Z,36.43
2018-12-18T01:24:42.279Z,31.67
2018-12-18T01:26:51.020Z,33.67
2018-12-18T01:28:59.860Z,35.30
2018-12-18T01:31:05.894Z,36.17
2018-12-18T01:33:15.716Z,28.73
2018-12-18T01:35:24.467Z,34.87
2018-12-18T01:37:33.036Z,37.70
2018-12-18T01:39:37.043Z,36.40
2018-12-18T01:41:41.073Z,36.83
2018-12-18T01:43:44.843Z,38.33
2018-12-18T01:45:48.686Z,30.33
2018-12-18T01:47:57.290Z,27.93
2018-12-18T01:50:06.070Z,31.40
2018-12-18T01:52:11.393Z,33.40
2018-12-18T01:54:14.947Z,31.90
2018-12-18T01:56:25.094Z,28.77
2018-12-18T01:58:33.640Z,26.30
2018-12-18T02:00:38.184Z,28.47
2018-12-18T02:02:42.428Z,33.37
2018-12-18T02:04:51.983Z,31.13
2018-12-18T02:07:01.735Z,31.27
2018-12-18T02:09:11.737Z,24.73
2018-12-18T02:11:20.637Z,29.87
2018-12-18T02:13:29.652Z,22.73
2018-12-18T02:15:33.424Z,31.73
2018-12-18T02:17:37.567Z,30.87
2018-12-18T02:19:41.555Z,29.97
2018-12-18T02:21:46.063Z,24.07
2018-12-18T02:23:55.019Z,31.20
2018-12-18T02:26:01.981Z,32.13
2018-12-18T02:28:12.139Z,31.90
2018-12-18T02:30:17.184Z,30.97
2018-12-18T02:32:26.045Z,27.77
2018-12-18T02:34:30.308Z,27.33
2018-12-18T02:36:40.079Z,29.53
2018-12-18T02:38:48.684Z,28.33
2018-12-18T02:40:52.797Z,27.60
2018-12-18T02:43:01.463Z,24.33
2018-12-18T02:45:08.241Z,29.83
2018-12-18T02:47:22.195Z,25.93
2018-12-18T02:49:31.971Z,32.30
2018-12-18T02:51:41.055Z,30.60
2018-12-18T02:53:50.081Z,29.27
2018-12-18T02:55:59.418Z,28.93
2018-12-18T02:58:11.482Z,27.20
2018-12-18T03:00:18.702Z,24.87
2018-12-18T03:02:27.993Z,24.47
2018-12-18T03:04:32.233Z,20.87
2018-12-18T03:06:36.382Z,31.50
2018-12-18T03:08:45.764Z,28.13
2018-12-18T03:15:35.490Z,22.93
2018-12-18T03:17:39.240Z,26.37
2018-12-18T03:19:42.987Z,23.07
2018-12-18T03:21:47.521Z,21.80
2018-12-18T03:23:52.224Z,26.67
2018-12-18T03:25:55.644Z,28.47
2018-12-18T03:28:04.373Z,24.23
2018-12-18T03:30:13.258Z,23.07
2018-12-18T03:32:20.173Z,30.43
2018-12-18T03:34:28.825Z,34.10
2018-12-18T03:36:37.793Z,33.93
2018-12-18T03:38:41.679Z,24.93
2018-12-18T03:40:45.553Z,24.50
2018-12-18T03:42:49.424Z,27.83
2018-12-18T03:44:58.271Z,29.63
2018-12-18T03:47:06.924Z,30.00
2018-12-18T03:49:11.390Z,29.90
2018-12-18T03:51:15.005Z,23.57
2018-12-18T03:53:23.976Z,26.20
2018-12-18T03:55:28.027Z,24.80
2018-12-18T03:57:31.699Z,27.40
2018-12-18T03:59:41.084Z,30.57
2018-12-18T04:01:50.539Z,27.33
2018-12-18T04:04:01.303Z,21.57
2018-12-18T04:06:10.127Z,20.93
2018-12-18T04:08:14.194Z,29.10
2018-12-18T04:10:22.768Z,27.63
2018-12-18T04:12:26.893Z,23.67
2018-12-18T04:14:30.952Z,20.93
2018-12-18T04:16:39.510Z,24.00
2018-12-18T04:18:48.264Z,24.77
2018-12-18T04:20:52.265Z,26.17
2018-12-18T04:22:56.216Z,20.33
2018-12-18T04:25:05.123Z,28.17
2018-12-18T04:27:13.566Z,22.10
2018-12-18T04:29:22.414Z,19.23
2018-12-18T04:31:26.403Z,25.57
2018-12-18T04:33:35.086Z,21.13
2018-12-18T04:35:43.806Z,19.53
2018-12-18T04:37:52.689Z,24.27
2018-12-18T04:40:01.653Z,23.13
2018-12-18T04:42:07.685Z,18.70
2018-12-18T04:44:16.146Z,18.87
2018-12-18T04:46:22.091Z,24.13
2018-12-18T04:48:26.161Z,18.77
2018-12-18T04:50:29.901Z,22.23
2018-12-18T04:52:38.708Z,20.43
2018-12-18T04:54:47.646Z,21.57
2018-12-18T04:56:51.752Z,21.30
2018-12-18T04:58:55.719Z,19.30
2018-12-18T05:01:04.417Z,20.03
2018-12-18T05:03:13.315Z,21.03
2018-12-18T05:05:17.656Z,19.07
2018-12-18T05:07:21.529Z,21.13
2018-12-18T05:09:30.331Z,19.73
2018-12-18T05:11:39.141Z,18.50
2018-12-18T05:13:43.464Z,21.33
2018-12-18T05:15:47.246Z,27.43
2018-12-18T05:17:51.346Z,21.60
2018-12-18T05:19:59.920Z,20.87
2018-12-18T05:22:06.207Z,22.33
2018-12-18T05:24:15.015Z,21.60
2018-12-18T05:26:23.374Z,20.50
2018-12-18T05:28:32.238Z,26.50
2018-12-18T05:30:36.163Z,24.60
2018-12-18T05:32:40.134Z,20.57
2018-12-18T05:34:44.006Z,18.93
2018-12-18T05:36:47.968Z,23.03
2018-12-18T05:38:57.633Z,21.20
2018-12-18T05:41:02.005Z,23.80
2018-12-18T05:43:06.084Z,25.73
2018-12-18T05:45:09.947Z,20.97
2018-12-18T05:47:18.427Z,21.90
2018-12-18T05:49:22.370Z,27.43
2018-12-18T05:51:32.132Z,25.00
2018-12-18T05:53:36.500Z,21.47
2018-12-18T05:55:45.147Z,28.57
2018-12-18T05:57:53.894Z,22.90
2018-12-18T05:59:57.972Z,21.83
2018-12-18T06:02:03.775Z,20.10
2018-12-18T06:04:07.871Z,20.73
2018-12-18T06:06:11.622Z,20.60
2018-12-18T06:08:15.484Z,20.17
2018-12-18T06:10:24.112Z,21.07
2018-12-18T06:12:28.203Z,20.53
2018-12-18T06:14:36.891Z,20.63
2018-12-18T06:16:40.945Z,24.20
2018-12-18T06:18:44.860Z,20.50
2018-12-18T06:20:53.304Z,18.97
2018-12-18T06:23:03.263Z,18.80
2018-12-18T06:25:07.507Z,22.23
2018-12-18T06:27:16.035Z,22.43
2018-12-18T06:29:20.136Z,19.43
2018-12-18T06:31:24.335Z,23.80
2018-12-18T06:33:30.784Z,22.00
2018-12-18T06:35:36.674Z,19.97
2018-12-18T06:37:40.564Z,20.33
2018-12-18T06:39:44.464Z,24.13
2018-12-18T06:41:50.487Z,22.60
2018-12-18T06:43:59.003Z,21.87
2018-12-18T06:46:07.748Z,21.83
2018-12-18T06:48:11.953Z,20.07
2018-12-18T06:50:15.761Z,22.57
2018-12-18T06:52:21.704Z,23.20
2018-12-18T06:54:25.573Z,23.23
2018-12-18T06:56:29.246Z,23.73
2018-12-18T06:58:38.133Z,24.30
2018-12-18T07:00:47.913Z,21.90
2018-12-18T07:02:52.157Z,19.27
2018-12-18T07:05:00.576Z,21.73
2018-12-18T07:07:06.765Z,20.57
2018-12-18T07:09:15.562Z,23.30
2018-12-18T07:11:19.328Z,21.63
2018-12-18T07:13:23.197Z,23.80
2018-12-18T07:15:31.978Z,18.90
2018-12-18T07:17:40.916Z,25.13
2018-12-18T07:19:49.756Z,24.67
2018-12-18T07:21:58.668Z,22.17
2018-12-18T07:24:02.848Z,21.80
2018-12-18T07:26:06.952Z,20.30
2018-12-18T07:28:10.911Z,20.67
2018-12-18T07:30:19.465Z,23.20
2018-12-18T07:32:23.429Z,21.83
2018-12-18T07:34:33.257Z,21.67
2018-12-18T07:36:37.916Z,23.80
2018-12-18T07:38:43.704Z,16.53
2018-12-18T07:40:47.688Z,23.53
2018-12-18T07:42:51.656Z,21.50
2018-12-18T07:44:55.660Z,21.60
2018-12-18T07:47:01.432Z,19.57
2018-12-18T07:49:05.187Z,16.30
2018-12-18T07:51:13.920Z,17.27
2018-12-18T07:53:18.027Z,17.63
2018-12-18T07:55:26.635Z,17.60
2018-12-18T07:57:30.764Z,17.27
2018-12-18T07:59:39.494Z,16.40
2018-12-18T08:01:43.487Z,16.50
2018-12-18T08:03:47.402Z,17.37
2018-12-18T08:07:55.514Z,16.13
2018-12-18T08:09:59.608Z,14.30
2018-12-18T08:12:08.312Z,18.03
2018-12-18T08:14:17.125Z,15.90
2018-12-18T08:16:25.960Z,14.23
2018-12-18T08:18:29.828Z,14.17
2018-12-18T08:20:33.704Z,13.67
2018-12-18T08:22:42.664Z,14.70
2018-12-18T08:24:51.539Z,13.43
2018-12-18T08:26:55.459Z,14.50
2018-12-18T08:28:59.301Z,13.13
2018-12-18T08:31:08.933Z,14.20
2018-12-18T08:33:17.924Z,12.23
2018-12-18T08:35:22.012Z,12.00
2018-12-18T08:37:25.971Z,11.87
2018-12-18T08:39:34.805Z,12.03
2018-12-18T08:41:38.771Z,12.37
2018-12-18T08:43:42.666Z,12.50
2018-12-18T08:45:51.334Z,11.27
2018-12-18T08:48:00.260Z,11.37
2018-12-18T08:50:09.346Z,11.10
2018-12-18T08:52:13.353Z,9.83
2018-12-18T08:54:17.223Z,11.17
2018-12-18T08:56:23.121Z,10.40
2018-12-18T08:58:27.217Z,11.67
2018-12-18T09:00:31.004Z,10.13
2018-12-18T09:02:39.784Z,11.07
2018-12-18T09:04:43.631Z,12.77
2018-12-18T09:06:49.591Z,14.27
2018-12-18T09:08:53.800Z,10.60
2018-12-18T09:11:02.583Z,11.40
2018-12-18T09:13:06.647Z,13.10
2018-12-18T09:15:21.003Z,12.13
2018-12-18T09:17:50.842Z,10.73
2018-12-18T09:19:54.537Z,10.73
2018-12-18T09:22:00.586Z,10.83
2018-12-18T09:24:04.424Z,11.90
2018-12-18T09:26:08.396Z,11.87
2018-12-18T09:28:12.466Z,11.27
2018-12-18T09:30:16.362Z,10.60
2018-12-18T09:32:20.454Z,11.00
2018-12-18T09:34:29.184Z,9.80
2018-12-18T09:36:33.207Z,10.20
2018-12-18T09:38:47.425Z,9.93
2018-12-18T09:40:56.742Z,12.03
2018-12-18T09:43:06.384Z,14.10
2018-12-18T09:45:12.565Z,13.10
2018-12-18T09:47:21.311Z,15.83
2018-12-18T09:49:25.284Z,12.37
2018-12-18T09:51:31.260Z,13.77
2018-12-18T09:53:40.032Z,10.57
2018-12-18T09:55:49.100Z,12.97
2018-12-18T09:57:58.383Z,11.13
2018-12-18T10:00:02.149Z,10.67
2018-12-18T10:02:07.936Z,9.70
2018-12-18T10:04:11.852Z,10.77
2018-12-18T10:06:20.704Z,10.47
2018-12-18T10:08:24.553Z,10.60
2018-12-18T10:10:29.535Z,10.67
2018-12-18T10:12:46.035Z,10.83
2018-12-18T10:14:55.291Z,10.40
2018-12-18T10:17:01.293Z,9.13
2018-12-18T10:19:09.979Z,9.47
2018-12-18T10:21:13.959Z,9.40
2018-12-18T10:23:17.921Z,12.07
2018-12-18T10:25:21.944Z,10.07
2018-12-18T10:27:30.657Z,9.17
2018-12-18T10:29:34.970Z,10.07
2018-12-18T10:31:40.788Z,9.80
2018-12-18T10:33:49.598Z,8.67
2018-12-18T10:35:53.542Z,9.57
2018-12-18T10:38:03.116Z,9.17
2018-12-18T10:40:09.130Z,9.33
2018-12-18T10:42:18.064Z,9.70
2018-12-18T10:44:22.279Z,9.63
2018-12-18T10:46:30.833Z,11.37
2018-12-18T10:48:39.739Z,10.37
2018-12-18T10:50:48.922Z,12.23
2018-12-18T10:52:57.339Z,13.10
2018-12-18T10:55:01.888Z,10.90
2018-12-18T10:57:06.504Z,10.70
2018-12-18T10:59:10.616Z,12.87
2018-12-18T11:01:17.696Z,14.23
2018-12-18T11:03:26.337Z,14.73
2018-12-18T11:05:30.786Z,11.13
2018-12-18T11:07:39.889Z,13.87
2018-12-18T11:09:49.414Z,13.33
2018-12-18T11:11:52.971Z,14.50
2018-12-18T11:14:01.815Z,13.93
2018-12-18T11:16:06.544Z,11.13
2018-12-18T11:18:10.677Z,12.37
2018-12-18T11:20:14.645Z,13.40
2018-12-18T11:22:19.283Z,12.87
2018-12-18T11:24:28.283Z,17.20
2018-12-18T11:26:32.644Z,13.37
2018-12-18T11:28:42.495Z,14.87
2018-12-18T11:30:52.117Z,14.30
2018-12-18T11:33:01.789Z,13.30
2018-12-18T11:35:12.024Z,14.33
2018-12-18T11:37:20.949Z,13.40
2018-12-18T11:39:24.619Z,12.67
2018-12-18T11:41:28.572Z,12.57
2018-12-18T11:43:34.704Z,13.83
2018-12-18T11:45:43.271Z,14.53
2018-12-18T11:47:52.387Z,11.40
2018-12-18T11:49:56.446Z,12.13
2018-12-18T11:52:06.201Z,12.30
2018-12-18T11:54:15.995Z,13.20
2018-12-18T11:56:24.352Z,12.77
2018-12-18T11:58:33.328Z,13.50
2018-12-18T12:00:43.077Z,12.87
2018-12-18T12:02:48.081Z,11.07
2018-12-18T12:04:52.846Z,11.50
2018-12-18T12:07:01.862Z,12.10
2018-12-18T12:09:10.607Z,11.07
2018-12-18T12:11:19.504Z,11.53
2018-12-18T12:13:28.501Z,10.60
2018-12-18T12:15:37.416Z,10.53
2018-12-18T12:17:41.493Z,10.17
2018-12-18T12:19:50.188Z,11.23
2018-12-18T12:21:58.816Z,10.40
2018-12-18T12:24:07.849Z,10.27
2018-12-18T12:26:22.103Z,11.13
2018-12-18T12:28:25.565Z,9.33
2018-12-18T12:30:29.617Z,10.23
2018-12-18T12:32:33.341Z,9.63
2018-12-18T12:34:41.885Z,9.27
2018-12-18T12:36:46.065Z,9.43
2018-12-18T12:38:49.964Z,9.63
2018-12-18T12:40:53.661Z,9.10
2018-12-18T12:42:57.301Z,8.43
2018-12-18T12:45:02.153Z,8.83
2018-12-18T12:47:06.013Z,9.27
2018-12-18T12:49:09.696Z,8.60
2018-12-18T12:51:18.435Z,8.83
2018-12-18T12:53:22.407Z,8.30
2018-12-18T12:55:32.105Z,8.17
2018-12-18T12:57:36.436Z,8.27
2018-12-18T12:59:42.199Z,7.90
2018-12-18T13:01:46.113Z,9.80
2018-12-18T13:03:49.992Z,7.83
2018-12-18T13:05:53.930Z,7.97
2018-12-18T13:07:57.998Z,8.40
2018-12-18T13:10:01.898Z,8.40
2018-12-18T13:12:05.810Z,7.43
2018-12-18T13:14:14.376Z,7.53
2018-12-18T13:16:23.106Z,8.47
2018-12-18T13:18:32.870Z,7.83
2018-12-18T13:20:41.903Z,7.37
2018-12-18T13:22:50.720Z,7.37
2018-12-18T13:24:54.612Z,6.70
2018-12-18T13:27:00.284Z,7.87
2018-12-18T13:29:04.047Z,8.07
2018-12-18T13:31:12.744Z,6.60
2018-12-18T13:33:16.601Z,7.27
2018-12-18T13:35:20.496Z,6.87
2018-12-18T13:37:24.295Z,7.47
2018-12-18T13:39:33.012Z,7.00
2018-12-18T13:41:37.208Z,7.63
2018-12-18T13:43:40.899Z,6.90
2018-12-18T13:45:49.304Z,6.83
2018-12-18T13:47:58.318Z,7.13
2018-12-18T13:50:02.313Z,6.17
2018-12-18T13:52:10.947Z,7.30
2018-12-18T13:54:19.941Z,6.60
2018-12-18T13:56:24.100Z,7.83
2018-12-18T13:58:28.095Z,6.57
2018-12-18T14:00:36.744Z,5.77
2018-12-18T14:02:45.472Z,6.70
2018-12-18T14:04:49.495Z,6.63
2018-12-18T14:06:53.399Z,5.93
2018-12-18T14:08:57.362Z,5.73
2018-12-18T14:11:01.321Z,5.30
2018-12-18T14:13:05.441Z,5.30
2018-12-18T14:15:09.553Z,6.17
2018-12-18T14:17:18.008Z,6.20
2018-12-18T14:19:24.104Z,5.30
2018-12-18T14:21:27.882Z,5.10
2018-12-18T14:23:37.472Z,5.97
2018-12-18T14:25:41.686Z,5.40
2018-12-18T14:27:50.453Z,5.83
2018-12-18T14:29:59.181Z,5.00
2018-12-18T14:32:05.087Z,6.80
2018-12-18T14:34:11.002Z,5.97
2018-12-18T14:36:19.688Z,5.63
2018-12-18T14:38:24.132Z,7.40
2018-12-18T14:40:28.232Z,6.90
2018-12-18T14:42:42.825Z,6.47
2018-12-18T14:44:51.516Z,6.93
2018-12-18T14:46:55.631Z,7.33
2018-12-18T14:48:59.924Z,5.90
2018-12-18T14:51:03.922Z,5.50
2018-12-18T14:53:12.449Z,8.07
2018-12-18T14:55:16.621Z,12.10
2018-12-18T14:57:22.621Z,12.73
2018-12-18T14:59:31.285Z,13.70
2018-12-18T15:01:35.093Z,14.83
2018-12-18T15:03:43.708Z,8.27
2018-12-18T15:05:47.749Z,7.87
2018-12-18T15:07:56.712Z,6.70
2018-12-18T15:10:00.820Z,6.53
2018-12-18T15:12:06.759Z,5.50
2018-12-18T15:14:10.580Z,17.47
2018-12-18T15:16:14.361Z,9.63
2018-12-18T15:18:23.046Z,7.00
2018-12-18T15:20:27.279Z,8.00
2018-12-18T15:22:36.840Z,6.57
2018-12-18T15:24:45.719Z,6.07
2018-12-18T15:26:49.813Z,6.03
2018-12-18T15:28:53.594Z,5.77
2018-12-18T15:31:02.205Z,5.90
2018-12-18T15:33:08.176Z,5.17
2018-12-18T15:35:18.044Z,5.70
2018-12-18T15:37:26.690Z,5.60
2018-12-18T15:39:30.783Z,9.23
2018-12-18T15:41:39.384Z,11.83
2018-12-18T15:43:48.147Z,7.43
2018-12-18T15:45:52.066Z,10.60
2018-12-18T15:47:55.917Z,8.97
2018-12-18T15:50:05.480Z,9.90
2018-12-18T15:52:09.668Z,9.17
2018-12-18T15:54:13.533Z,10.83
2018-12-18T15:56:22.181Z,7.43
2018-12-18T15:58:26.096Z,7.67
2018-12-18T16:00:30.026Z,6.20
2018-12-18T16:02:33.932Z,5.87
2018-12-18T16:04:42.521Z,6.03
2018-12-18T16:06:51.467Z,5.27
2018-12-18T16:08:55.461Z,5.27
2018-12-18T16:10:59.354Z,6.10
2018-12-18T16:13:03.165Z,4.63
2018-12-18T16:15:07.864Z,6.20
2018-12-18T16:17:16.908Z,5.47
2018-12-18T16:19:21.328Z,4.97
2018-12-18T16:21:25.012Z,5.30
2018-12-18T16:23:29.056Z,5.10
2018-12-18T16:25:37.772Z,4.97
2018-12-18T16:27:46.652Z,4.70
2018-12-18T16:29:55.664Z,5.13
2018-12-18T16:32:01.648Z,5.00
2018-12-18T16:34:05.612Z,6.57
2018-12-18T16:36:14.747Z,6.63
2018-12-18T16:38:23.564Z,5.00
2018-12-18T16:40:32.392Z,5.80
2018-12-18T16:42:36.287Z,4.87
2018-12-18T16:44:45.058Z,4.37
2018-12-18T16:46:53.849Z,5.00
2018-12-18T16:48:57.852Z,6.00
2018-12-18T16:51:01.708Z,5.20
2018-12-18T16:53:10.272Z,6.07
2018-12-18T16:55:14.281Z,4.70
2018-12-18T16:57:20.356Z,4.70
2018-12-18T16:59:24.147Z,4.10
2018-12-18T17:01:28.160Z,4.77
2018-12-18T17:03:31.970Z,4.60
2018-12-18T17:05:35.963Z,3.90
2018-12-18T17:07:39.941Z,4.00
2018-12-18T17:09:48.841Z,4.80
2018-12-18T17:11:52.844Z,4.03
2018-12-18T17:13:56.694Z,3.40
2018-12-18T17:16:00.583Z,3.97
2018-12-18T17:18:04.643Z,4.80
2018-12-18T17:20:08.609Z,4.37
2018-12-18T17:22:17.329Z,4.53
2018-12-18T17:24:21.104Z,4.10
2018-12-18T17:26:29.645Z,4.17
2018-12-18T17:28:35.599Z,4.10
2018-12-18T17:30:44.220Z,3.83
2018-12-18T17:32:48.417Z,3.83
2018-12-18T17:34:52.304Z,4.10
2018-12-18T17:37:00.943Z,3.90
2018-12-18T17:39:09.752Z,4.07
2018-12-18T17:41:18.536Z,4.50
2018-12-18T17:43:27.567Z,3.80
2018-12-18T17:45:36.218Z,3.50
2018-12-18T17:47:40.208Z,3.83
2018-12-18T17:49:49.090Z,4.13
2018-12-18T17:51:53.186Z,4.70
2018-12-18T17:53:57.247Z,4.30
2018-12-18T17:56:01.231Z,4.90
2018-12-18T17:58:05.118Z,6.20
2018-12-18T18:00:09.013Z,5.80
2018-12-18T18:02:12.821Z,5.00
2018-12-18T18:04:16.919Z,4.00
2018-12-18T18:06:20.883Z,5.73
2018-12-18T18:08:24.868Z,4.57
2018-12-18T18:10:33.564Z,4.87
2018-12-18T18:12:42.612Z,5.90
2018-12-18T18:14:51.523Z,4.87
2018-12-18T18:16:55.499Z,7.37
2018-12-18T18:18:59.458Z,5.00
2018-12-18T18:21:03.462Z,6.70
2018-12-18T18:23:07.107Z,5.77
2018-12-18T18:25:11.074Z,5.27
2018-12-18T18:27:19.707Z,4.77
2018-12-18T18:29:28.552Z,6.53
2018-12-18T18:31:37.493Z,6.73
2018-12-18T18:33:46.386Z,9.00
2018-12-18T18:35:55.148Z,6.70
2018-12-18T18:38:04.220Z,7.10
2018-12-18T18:40:08.555Z,4.13
2018-12-18T18:42:14.352Z,5.00
2018-12-18T18:44:18.063Z,4.67
2018-12-18T18:46:21.925Z,4.47
2018-12-18T18:48:27.907Z,4.60
2018-12-18T18:50:37.455Z,4.50
2018-12-18T18:52:41.629Z,4.33
2018-12-18T18:54:51.231Z,4.30
2018-12-18T18:56:55.495Z,4.70
2018-12-18T18:58:59.436Z,4.83
2018-12-18T19:01:03.496Z,5.07
2018-12-18T19:03:12.016Z,4.37
2018-12-18T19:05:20.800Z,4.00
2018-12-18T19:07:29.622Z,4.70
2018-12-18T19:09:38.409Z,4.90
2018-12-18T19:11:42.486Z,5.00
2018-12-18T19:13:46.252Z,3.90
2018-12-18T19:15:50.234Z,4.37
2018-12-18T19:17:54.182Z,4.90
2018-12-18T19:20:03.510Z,5.63
2018-12-18T19:22:07.107Z,5.03
2018-12-18T19:24:15.778Z,5.70
2018-12-18T19:26:24.461Z,5.27
2018-12-18T19:28:28.328Z,5.20
2018-12-18T19:30:37.084Z,5.00
2018-12-18T19:32:41.181Z,4.27
2018-12-18T19:34:45.039Z,5.30
2018-12-18T19:36:49.256Z,4.20
2018-12-18T19:38:57.836Z,3.83
2018-12-18T19:41:01.613Z,4.33
2018-12-18T19:43:05.472Z,5.03
2018-12-18T19:45:09.684Z,5.63
2018-12-18T19:47:18.254Z,5.03
2018-12-18T19:49:27.082Z,5.27
2018-12-18T19:51:31.095Z,5.07
2018-12-18T19:53:34.860Z,3.90
2018-12-18T19:55:38.812Z,5.87
2018-12-18T19:57:42.924Z,4.97
2018-12-18T19:59:46.768Z,4.60
2018-12-18T20:01:50.386Z,4.70
2018-12-18T20:03:59.138Z,3.60
2018-12-18T20:06:03.149Z,6.33
2018-12-18T20:08:11.890Z,5.67
2018-12-18T20:10:20.886Z,6.23
2018-12-18T20:12:27.055Z,4.40
2018-12-18T20:14:35.859Z,7.03
2018-12-18T20:16:45.543Z,6.17
2018-12-18T20:18:54.548Z,4.53
2018-12-18T20:21:03.580Z,5.57
2018-12-18T20:23:12.288Z,4.80
2018-12-18T20:25:16.394Z,5.43
2018-12-18T20:27:25.110Z,6.60
2018-12-18T20:29:31.415Z,5.67
2018-12-18T20:31:34.956Z,7.30
2018-12-18T20:33:43.580Z,6.83
2018-12-18T20:35:47.779Z,5.70
2018-12-18T20:37:56.330Z,5.87
2018-12-18T20:40:06.633Z,6.10
2018-12-18T20:42:15.090Z,6.00
2018-12-18T20:44:19.216Z,8.03
2018-12-18T20:46:22.919Z,6.50
2018-12-18T20:48:27.008Z,8.30
2018-12-18T20:50:30.803Z,7.83
2018-12-18T20:52:40.503Z,8.93
2018-12-18T20:54:49.244Z,8.83
2018-12-18T20:56:53.302Z,10.10
2018-12-18T20:58:57.088Z,12.17
2018-12-18T21:01:01.055Z,10.90
2018-12-18T21:03:09.530Z,9.60
2018-12-18T21:05:18.471Z,10.30
2018-12-18T21:07:22.552Z,11.63
2018-12-18T21:09:26.522Z,7.83
2018-12-18T21:11:30.309Z,9.47
2018-12-18T21:13:34.105Z,9.63
2018-12-18T21:15:38.189Z,9.37
2018-12-18T21:17:42.108Z,10.40
2018-12-18T21:19:48.228Z,8.73
2018-12-18T21:21:56.988Z,7.73
2018-12-18T21:24:01.064Z,9.60
2018-12-18T21:26:05.060Z,8.17
2018-12-18T21:28:09.088Z,7.33
2018-12-18T21:30:12.859Z,6.07
2018-12-18T21:32:21.554Z,7.27
2018-12-18T21:34:30.435Z,6.53
2018-12-18T21:36:34.432Z,5.70
2018-12-18T21:38:38.212Z,5.00
2018-12-18T21:40:42.168Z,5.30
2018-12-18T21:42:46.095Z,4.87
2018-12-18T21:44:50.277Z,5.93
2018-12-18T21:46:54.088Z,4.93
2018-12-18T21:48:57.864Z,5.03
2018-12-18T21:51:03.841Z,6.10
2018-12-18T21:53:07.796Z,5.73
2018-12-18T21:55:11.787Z,5.90
2018-12-18T21:57:20.518Z,5.40
2018-12-18T21:59:29.489Z,4.73
2018-12-18T22:01:38.344Z,4.43
2018-12-18T22:03:42.415Z,5.13
2018-12-18T22:05:46.191Z,4.63
2018-12-18T22:07:54.925Z,4.87
2018-12-18T22:09:59.029Z,4.70
2018-12-18T22:12:05.212Z,5.47
2018-12-18T22:14:13.824Z,5.43
2018-12-18T22:16:18.071Z,4.10
2018-12-18T22:18:26.748Z,4.20
2018-12-18T22:20:36.831Z,4.70
2018-12-18T22:22:45.872Z,5.03
2018-12-18T22:24:54.748Z,4.53
2018-12-18T22:27:00.823Z,3.93
2018-12-18T22:29:09.510Z,3.93
2018-12-18T22:31:18.265Z,3.80
2018-12-18T22:33:22.247Z,3.80
2018-12-18T22:35:26.145Z,3.63
2018-12-18T22:37:29.948Z,3.60
2018-12-18T22:39:33.615Z,4.30
2018-12-18T22:41:37.537Z,4.47
2018-12-18T22:43:46.216Z,3.77
2018-12-18T22:45:55.210Z,3.53
2018-12-18T22:48:01.140Z,4.77
2018-12-18T22:50:09.840Z,4.33
2018-12-18T22:52:18.700Z,4.20
2018-12-18T22:54:27.585Z,4.30
2018-12-18T22:56:31.729Z,4.30
2018-12-18T22:58:40.245Z,4.27
2018-12-18T23:00:52.816Z,3.93
2018-12-18T23:03:01.313Z,3.40
2018-12-18T23:05:05.599Z,4.30
2018-12-18T23:07:09.355Z,3.93
2018-12-18T23:09:14.332Z,3.80
2018-12-18T23:11:22.799Z,3.50
2018-12-18T23:13:26.992Z,3.53
2018-12-18T23:15:36.033Z,4.47
2018-12-18T23:17:39.997Z,4.23
2018-12-18T23:19:49.529Z,3.30
2018-12-18T23:21:55.624Z,3.90
2018-12-18T23:23:59.395Z,4.60
2018-12-18T23:26:03.369Z,4.30
2018-12-18T23:28:07.327Z,3.73
2018-12-18T23:30:11.299Z,3.77
2018-12-18T23:32:20.088Z,4.37
2018-12-18T23:34:24.445Z,4.33
2018-12-18T23:36:33.156Z,4.20
2018-12-18T23:38:37.261Z,3.67
2018-12-18T23:40:45.908Z,3.63
2018-12-18T23:42:49.923Z,3.67
2018-12-18T23:44:53.727Z,3.43
2018-12-18T23:46:59.828Z,4.30
2018-12-18T23:49:03.498Z,4.20
2018-12-18T23:51:12.240Z,3.80
2018-12-18T23:53:21.112Z,3.80
2018-12-18T23:55:25.166Z,3.20
2018-12-18T23:57:29.116Z,3.13
2018-12-18T23:59:38.463Z,4.00
